createdAt,value
2023-05-24T00:00:21.889Z,96.82
2023-05-24T00:02:51.463Z,96.63
2023-05-24T00:05:22.668Z,96.68
2023-05-24T00:07:52.349Z,97.14
2023-05-24T00:10:24.955Z,97.32
2023-05-24T00:12:57.939Z,97.36
2023-05-24T00:15:24.665Z,97.53
2023-05-24T00:17:51.618Z,97.68
2023-05-24T00:20:20.680Z,97.71
2023-05-24T00:22:47.585Z,98.03
2023-05-24T00:25:14.143Z,98.74
2023-05-24T00:27:40.774Z,98.77
2023-05-24T00:30:10.983Z,99.41
2023-05-24T00:32:37.515Z,99.43
2023-05-24T00:35:04.448Z,99.87
2023-05-24T00:37:30.952Z,99.58
2023-05-24T00:39:57.826Z,99.48
2023-05-24T00:42:24.361Z,99.00
2023-05-24T00:44:50.909Z,99.13
2023-05-24T00:47:21.027Z,99.98
2023-05-24T00:49:47.666Z,99.98
2023-05-24T00:52:14.510Z,99.61
2023-05-24T00:54:44.797Z,100.00
2023-05-24T00:57:13.991Z,100.00
2023-05-24T00:59:41.116Z,100.00
2023-05-24T01:02:10.782Z,100.00
2023-05-24T01:04:38.114Z,100.00
2023-05-24T01:07:27.379Z,100.00
2023-05-24T01:10:11.448Z,100.00
2023-05-24T01:13:05.730Z,100.00
2023-05-24T01:15:46.088Z,100.00
2023-05-24T01:18:33.243Z,100.00
2023-05-24T01:21:14.408Z,99.88
2023-05-24T01:24:18.183Z,99.94
2023-05-24T01:27:03.110Z,100.00
2023-05-24T01:29:31.331Z,100.00
2023-05-24T01:31:58.130Z,100.00
2023-05-24T01:34:27.903Z,100.00
2023-05-24T01:36:54.709Z,100.00
2023-05-24T01:39:22.861Z,100.00
2023-05-24T01:42:13.620Z,100.00
2023-05-24T01:44:51.095Z,100.00
2023-05-24T01:47:44.800Z,100.00
2023-05-24T01:50:26.951Z,100.00
2023-05-24T01:52:58.227Z,100.00
2023-05-24T01:55:29.207Z,100.00
2023-05-24T01:58:00.794Z,100.00
2023-05-24T02:00:27.520Z,100.00
2023-05-24T02:02:55.204Z,100.00
2023-05-24T02:05:22.013Z,100.00
2023-05-24T02:07:48.598Z,100.00
2023-05-24T02:10:15.150Z,100.00
2023-05-24T02:12:41.632Z,100.00
2023-05-24T02:15:09.222Z,100.00
2023-05-24T02:17:35.977Z,100.00
2023-05-24T02:20:03.981Z,100.00
2023-05-24T02:22:30.580Z,100.00
2023-05-24T02:24:57.755Z,100.00
2023-05-24T02:27:24.306Z,100.00
2023-05-24T02:29:50.870Z,100.00
2023-05-24T02:32:17.399Z,100.00
2023-05-24T02:34:44.249Z,100.00
2023-05-24T02:37:14.628Z,100.00
2023-05-24T02:39:42.244Z,100.00
2023-05-24T02:42:09.177Z,100.00
2023-05-24T02:44:35.698Z,100.00
2023-05-24T02:47:02.255Z,100.00
2023-05-24T02:49:28.819Z,100.00
2023-05-24T02:51:55.476Z,100.00
2023-05-24T02:54:21.956Z,100.00
2023-05-24T02:56:48.593Z,100.00
2023-05-24T02:59:15.161Z,100.00
2023-05-24T03:01:41.754Z,100.00
2023-05-24T03:04:08.404Z,100.00
2023-05-24T03:06:34.955Z,100.00
2023-05-24T03:09:01.781Z,100.00
2023-05-24T03:11:28.315Z,100.00
2023-05-24T03:13:54.909Z,100.00
2023-05-24T03:16:21.523Z,100.00
2023-05-24T03:18:50.755Z,100.00
2023-05-24T03:21:20.856Z,100.00
2023-05-24T03:23:47.640Z,100.00
2023-05-24T03:26:17.203Z,100.00
2023-05-24T03:28:44.405Z,100.00
2023-05-24T03:31:12.284Z,100.00
2023-05-24T03:33:39.028Z,100.00
2023-05-24T03:36:06.737Z,100.00
2023-05-24T03:38:33.824Z,100.00
2023-05-24T03:41:00.590Z,100.00
2023-05-24T03:43:27.077Z,100.00
2023-05-24T03:45:53.684Z,100.00
2023-05-24T03:48:23.100Z,100.00
2023-05-24T03:50:52.304Z,100.00
2023-05-24T03:53:20.516Z,100.00
2023-05-24T03:55:48.843Z,100.00
2023-05-24T03:58:15.490Z,100.00
2023-05-24T04:00:42.195Z,100.00
2023-05-24T04:03:09.135Z,100.00
2023-05-24T04:05:35.838Z,100.00
2023-05-24T04:08:02.911Z,100.00
2023-05-24T04:10:29.589Z,100.00
2023-05-24T04:12:57.383Z,100.00
2023-05-24T04:15:24.243Z,100.00
2023-05-24T04:17:55.132Z,100.00
2023-05-24T04:20:27.113Z,100.00
2023-05-24T04:22:54.347Z,100.00
2023-05-24T04:25:20.980Z,100.00
2023-05-24T04:27:48.744Z,100.00
2023-05-24T04:30:18.658Z,100.00
2023-05-24T04:32:45.353Z,100.00
2023-05-24T04:35:12.157Z,100.00
2023-05-24T04:37:39.860Z,100.00
2023-05-24T04:40:08.108Z,100.00
2023-05-24T04:42:35.387Z,100.00
2023-05-24T04:45:02.309Z,100.00
2023-05-24T04:47:28.992Z,100.00
2023-05-24T04:49:55.587Z,100.00
2023-05-24T04:52:22.721Z,100.00
2023-05-24T04:54:49.928Z,100.00
2023-05-24T04:57:17.125Z,100.00
2023-05-24T04:59:44.393Z,100.00
2023-05-24T05:02:11.130Z,100.00
2023-05-24T05:04:37.723Z,100.00
2023-05-24T05:07:04.355Z,100.00
2023-05-24T05:09:34.216Z,100.00
2023-05-24T05:12:00.773Z,100.00
2023-05-24T05:14:29.427Z,100.00
2023-05-24T05:16:56.161Z,100.00
2023-05-24T05:19:25.625Z,100.00
2023-05-24T05:21:52.421Z,100.00
2023-05-24T05:24:19.004Z,100.00
2023-05-24T05:26:45.716Z,100.00
2023-05-24T05:29:12.251Z,100.00
2023-05-24T05:31:39.735Z,100.00
2023-05-24T05:34:09.717Z,100.00
2023-05-24T05:36:41.043Z,100.00
2023-05-24T05:39:10.989Z,100.00
2023-05-24T05:41:45.792Z,100.00
2023-05-24T05:44:13.525Z,100.00
2023-05-24T05:46:40.418Z,100.00
2023-05-24T05:49:07.133Z,100.00
2023-05-24T05:51:33.679Z,100.00
2023-05-24T05:54:00.236Z,100.00
2023-05-24T05:56:27.726Z,100.00
2023-05-24T05:58:54.318Z,100.00
2023-05-24T06:01:20.943Z,100.00
2023-05-24T06:03:47.810Z,100.00
2023-05-24T06:06:14.515Z,100.00
2023-05-24T06:08:41.052Z,100.00
2023-05-24T06:11:07.713Z,100.00
2023-05-24T06:13:34.325Z,100.00
2023-05-24T06:16:01.330Z,100.00
2023-05-24T06:18:30.553Z,100.00
2023-05-24T06:20:57.198Z,100.00
2023-05-24T06:23:24.046Z,100.00
2023-05-24T06:25:50.815Z,100.00
2023-05-24T06:28:20.395Z,100.00
2023-05-24T06:30:47.582Z,100.00
2023-05-24T06:33:14.288Z,100.00
2023-05-24T06:35:40.918Z,100.00
2023-05-24T06:38:07.548Z,100.00
2023-05-24T06:40:34.053Z,100.00
2023-05-24T06:43:00.666Z,100.00
2023-05-24T06:45:27.156Z,100.00
2023-05-24T06:47:53.726Z,100.00
2023-05-24T06:50:20.325Z,100.00
2023-05-24T06:52:46.829Z,100.00
2023-05-24T06:55:13.770Z,100.00
2023-05-24T06:57:40.305Z,100.00
2023-05-24T07:00:12.414Z,100.00
2023-05-24T07:02:39.435Z,100.00
2023-05-24T07:05:08.361Z,100.00
2023-05-24T07:07:34.878Z,100.00
2023-05-24T07:10:01.525Z,100.00
2023-05-24T07:12:28.026Z,100.00
2023-05-24T07:14:56.257Z,100.00
2023-05-24T07:17:22.854Z,100.00
2023-05-24T07:19:49.501Z,100.00
2023-05-24T07:22:16.590Z,100.00
2023-05-24T07:24:43.202Z,100.00
2023-05-24T07:27:10.015Z,100.00
2023-05-24T07:29:36.818Z,100.00
2023-05-24T07:32:04.036Z,100.00
2023-05-24T07:34:31.301Z,100.00
2023-05-24T07:37:00.644Z,100.00
2023-05-24T07:39:27.586Z,100.00
2023-05-24T07:41:54.677Z,100.00
2023-05-24T07:44:21.238Z,100.00
2023-05-24T07:46:47.800Z,100.00
2023-05-24T07:49:14.353Z,100.00
2023-05-24T07:51:40.911Z,100.00
2023-05-24T07:54:07.502Z,100.00
2023-05-24T07:56:34.054Z,100.00
2023-05-24T07:59:04.794Z,100.00
2023-05-24T08:01:34.363Z,100.00
2023-05-24T08:04:02.797Z,100.00
2023-05-24T08:06:30.215Z,100.00
2023-05-24T08:08:56.725Z,100.00
2023-05-24T08:11:23.638Z,100.00
2023-05-24T08:13:50.236Z,100.00
2023-05-24T08:16:16.809Z,100.00
2023-05-24T08:18:43.326Z,100.00
2023-05-24T08:21:09.866Z,100.00
2023-05-24T08:23:36.581Z,100.00
2023-05-24T08:26:03.170Z,100.00
2023-05-24T08:28:29.792Z,100.00
2023-05-24T08:30:56.334Z,100.00
2023-05-24T08:33:25.815Z,99.80
2023-05-24T08:35:52.341Z,99.27
2023-05-24T08:38:18.996Z,98.08
2023-05-24T08:40:46.041Z,96.16
2023-05-24T08:43:12.869Z,97.93
2023-05-24T08:45:39.945Z,98.98
2023-05-24T08:48:07.362Z,98.32
2023-05-24T08:50:34.843Z,95.50
2023-05-24T08:53:02.915Z,97.51
2023-05-24T08:55:33.618Z,96.00
2023-05-24T08:58:00.792Z,96.65
2023-05-24T09:00:27.542Z,94.09
2023-05-24T09:02:54.273Z,92.81
2023-05-24T09:05:24.224Z,94.86
2023-05-24T09:07:52.432Z,94.49
2023-05-24T09:10:21.707Z,91.67
2023-05-24T09:12:55.276Z,92.13
2023-05-24T09:15:21.893Z,90.64
2023-05-24T09:17:48.479Z,88.12
2023-05-24T09:20:15.487Z,88.10
2023-05-24T09:22:43.191Z,89.19
2023-05-24T09:25:12.682Z,85.38
2023-05-24T09:27:39.425Z,84.28
2023-05-24T09:30:10.965Z,87.92
2023-05-24T09:32:37.970Z,83.60
2023-05-24T09:35:08.467Z,84.87
2023-05-24T09:37:38.547Z,85.79
2023-05-24T09:40:07.097Z,86.32
2023-05-24T09:42:33.851Z,85.63
2023-05-24T09:45:02.242Z,85.77
2023-05-24T09:47:33.630Z,85.21
2023-05-24T09:50:00.976Z,85.74
2023-05-24T09:52:27.973Z,88.71
2023-05-24T09:54:55.018Z,89.97
2023-05-24T09:57:22.903Z,89.49
2023-05-24T09:59:50.286Z,87.33
2023-05-24T10:02:20.484Z,83.94
2023-05-24T10:04:47.724Z,84.39
2023-05-24T10:07:16.187Z,84.67
2023-05-24T10:09:44.967Z,88.73
2023-05-24T10:12:11.515Z,86.29
2023-05-24T10:14:39.023Z,86.45
2023-05-24T10:17:07.020Z,86.74
2023-05-24T10:19:34.769Z,84.64
2023-05-24T10:22:05.864Z,86.10
2023-05-24T10:24:36.662Z,92.97
2023-05-24T10:27:07.694Z,95.29
2023-05-24T10:29:48.912Z,96.59
2023-05-24T10:32:18.908Z,98.74
2023-05-24T10:34:46.768Z,98.09
2023-05-24T10:37:13.894Z,96.69
2023-05-24T10:39:42.007Z,97.72
2023-05-24T10:42:09.910Z,94.79
2023-05-24T10:44:37.246Z,92.21
2023-05-24T10:47:15.654Z,94.29
2023-05-24T10:49:55.079Z,96.13
2023-05-24T10:52:21.648Z,97.28
2023-05-24T10:55:14.268Z,97.57
2023-05-24T10:57:41.736Z,98.53
2023-05-24T11:00:33.906Z,96.72
2023-05-24T11:03:02.330Z,96.32
2023-05-24T11:05:36.500Z,97.25
2023-05-24T11:08:04.210Z,91.72
2023-05-24T11:10:31.782Z,91.88
2023-05-24T11:13:02.457Z,93.60
2023-05-24T11:15:32.153Z,96.47
2023-05-24T11:18:17.387Z,96.82
2023-05-24T11:20:48.149Z,93.45
2023-05-24T11:23:16.160Z,88.49
2023-05-24T11:25:43.249Z,84.53
2023-05-24T11:28:11.906Z,86.31
2023-05-24T11:30:42.532Z,80.36
2023-05-24T11:33:20.087Z,85.06
2023-05-24T11:35:47.472Z,77.85
2023-05-24T11:38:15.858Z,79.93
2023-05-24T11:40:44.941Z,82.20
2023-05-24T11:43:21.852Z,82.66
2023-05-24T11:45:49.842Z,83.60
2023-05-24T11:48:18.577Z,86.15
2023-05-24T11:50:50.233Z,87.59
2023-05-24T11:53:19.680Z,87.38
2023-05-24T11:55:46.436Z,83.69
2023-05-24T11:58:38.592Z,88.83
2023-05-24T12:01:05.103Z,89.98
2023-05-24T12:03:32.938Z,93.90
2023-05-24T12:05:59.738Z,90.80
2023-05-24T12:08:26.335Z,95.38
2023-05-24T12:10:52.971Z,95.57
2023-05-24T12:13:25.499Z,95.35
2023-05-24T12:15:56.295Z,96.14
2023-05-24T12:18:28.696Z,96.37
2023-05-24T12:20:55.402Z,95.71
2023-05-24T12:23:31.999Z,96.89
2023-05-24T12:26:02.365Z,96.61
2023-05-24T12:28:36.317Z,97.83
2023-05-24T12:31:04.429Z,96.58
2023-05-24T12:33:31.626Z,95.86
2023-05-24T12:35:59.024Z,93.01
2023-05-24T12:38:25.985Z,92.94
2023-05-24T12:41:10.860Z,95.06
2023-05-24T12:43:39.313Z,96.20
2023-05-24T12:46:05.827Z,96.43
2023-05-24T12:48:32.559Z,95.73
2023-05-24T12:50:59.239Z,94.20
2023-05-24T12:53:26.248Z,95.65
2023-05-24T12:55:56.140Z,96.09
2023-05-24T12:58:22.793Z,97.68
2023-05-24T13:00:51.464Z,100.00
2023-05-24T13:03:18.405Z,100.00
2023-05-24T13:05:46.123Z,100.00
2023-05-24T13:08:13.549Z,100.00
2023-05-24T13:10:40.979Z,100.00
2023-05-24T13:13:07.732Z,100.00
2023-05-24T13:15:34.403Z,100.00
2023-05-24T13:18:00.963Z,100.00
2023-05-24T13:20:27.621Z,100.00
2023-05-24T13:22:54.206Z,100.00
2023-05-24T13:25:22.568Z,100.00
2023-05-24T13:27:49.199Z,100.00
2023-05-24T13:30:17.200Z,100.00
2023-05-24T13:32:43.893Z,100.00
2023-05-24T13:35:10.444Z,100.00
2023-05-24T13:37:36.965Z,99.81
2023-05-24T13:40:04.312Z,99.73
2023-05-24T13:42:31.035Z,100.00
2023-05-24T13:44:59.180Z,98.97
2023-05-24T13:47:38.741Z,97.52
2023-05-24T13:50:06.093Z,98.70
2023-05-24T13:52:32.920Z,100.00
2023-05-24T13:54:59.500Z,100.00
2023-05-24T13:57:31.298Z,98.72
2023-05-24T14:00:09.012Z,98.70
2023-05-24T14:02:35.648Z,97.53
2023-05-24T14:05:13.505Z,97.44
2023-05-24T14:07:48.738Z,95.91
2023-05-24T14:10:15.901Z,95.88
2023-05-24T14:12:43.591Z,96.46
2023-05-24T14:15:10.685Z,97.23
2023-05-24T14:17:37.222Z,96.62
2023-05-24T14:20:04.203Z,97.27
2023-05-24T14:22:30.977Z,95.60
2023-05-24T14:24:57.650Z,97.04
2023-05-24T14:27:24.249Z,97.12
2023-05-24T14:29:50.852Z,96.05
2023-05-24T14:32:17.857Z,97.49
2023-05-24T14:34:44.405Z,99.08
2023-05-24T14:37:11.086Z,98.51
2023-05-24T14:39:37.585Z,97.41
2023-05-24T14:42:04.285Z,96.63
2023-05-24T14:44:30.929Z,96.20
2023-05-24T14:46:57.482Z,97.64
2023-05-24T14:49:24.030Z,97.75
2023-05-24T14:51:50.592Z,96.60
2023-05-24T14:54:17.129Z,98.01
2023-05-24T14:56:44.892Z,96.95
2023-05-24T14:59:11.392Z,97.52
2023-05-24T15:01:38.103Z,97.11
2023-05-24T15:04:04.706Z,95.71
2023-05-24T15:06:35.435Z,98.70
2023-05-24T15:09:02.732Z,97.92
2023-05-24T15:11:32.302Z,97.64
2023-05-24T15:13:59.356Z,97.48
2023-05-24T15:16:26.835Z,95.58
2023-05-24T15:18:53.875Z,94.04
2023-05-24T15:21:21.278Z,95.03
2023-05-24T15:23:48.454Z,93.87
2023-05-24T15:26:14.954Z,93.80
2023-05-24T15:28:41.656Z,94.90
2023-05-24T15:31:08.212Z,96.46
2023-05-24T15:33:36.262Z,96.51
2023-05-24T15:36:04.114Z,95.66
2023-05-24T15:38:31.020Z,96.37
2023-05-24T15:40:57.518Z,96.33
2023-05-24T15:43:24.069Z,97.01
2023-05-24T15:45:51.054Z,98.68
2023-05-24T15:48:17.584Z,100.00
2023-05-24T15:51:22.120Z,100.00
2023-05-24T15:53:30.911Z,100.00
2023-05-24T15:55:57.520Z,100.00
2023-05-24T15:58:27.318Z,100.00
2023-05-24T16:00:54.459Z,100.00
2023-05-24T16:03:21.110Z,99.80
2023-05-24T16:05:50.649Z,99.57
2023-05-24T16:08:17.902Z,99.58
2023-05-24T16:10:44.999Z,98.82
2023-05-24T16:13:12.010Z,99.80
2023-05-24T16:15:40.941Z,99.78
2023-05-24T16:18:08.407Z,100.00
2023-05-24T16:20:35.200Z,100.00
2023-05-24T16:23:03.105Z,100.00
2023-05-24T16:25:32.232Z,100.00
2023-05-24T16:28:00.277Z,100.00
2023-05-24T16:30:27.035Z,100.00
2023-05-24T16:32:53.547Z,100.00
2023-05-24T16:35:20.271Z,100.00
2023-05-24T16:37:48.282Z,99.91
2023-05-24T16:40:14.871Z,99.30
2023-05-24T16:42:41.477Z,99.12
2023-05-24T16:45:08.300Z,99.01
2023-05-24T16:47:35.004Z,95.00
2023-05-24T16:50:01.563Z,92.94
2023-05-24T16:52:28.168Z,93.47
2023-05-24T16:54:54.668Z,92.49
2023-05-24T16:57:21.213Z,94.43
2023-05-24T16:59:50.629Z,97.60
2023-05-24T17:02:17.376Z,96.79
2023-05-24T17:04:43.876Z,96.58
2023-05-24T17:07:10.427Z,97.15
2023-05-24T17:09:37.985Z,97.03
2023-05-24T17:12:04.761Z,95.66
2023-05-24T17:14:31.511Z,95.62
2023-05-24T17:16:58.018Z,95.42
2023-05-24T17:19:25.229Z,96.69
2023-05-24T17:21:51.845Z,97.73
2023-05-24T17:24:18.327Z,97.90
2023-05-24T17:26:45.365Z,98.08
2023-05-24T17:29:11.890Z,97.07
2023-05-24T17:31:38.538Z,97.94
2023-05-24T17:34:07.423Z,96.18
2023-05-24T17:36:36.377Z,96.18
2023-05-24T17:39:03.288Z,96.39
2023-05-24T17:41:29.870Z,96.98
2023-05-24T17:43:56.385Z,97.62
2023-05-24T17:46:22.931Z,98.88
2023-05-24T17:48:51.034Z,99.76
2023-05-24T17:51:20.712Z,100.00
2023-05-24T17:53:47.400Z,100.00
2023-05-24T17:56:13.906Z,100.00
2023-05-24T17:58:40.645Z,100.00
2023-05-24T18:01:08.770Z,100.00
2023-05-24T18:03:40.725Z,100.00
2023-05-24T18:06:08.418Z,100.00
2023-05-24T18:08:37.781Z,100.00
2023-05-24T18:11:08.306Z,100.00
2023-05-24T18:13:39.039Z,100.00
2023-05-24T18:16:06.594Z,100.00
2023-05-24T18:18:33.254Z,100.00
2023-05-24T18:20:59.895Z,100.00
2023-05-24T18:23:26.493Z,100.00
2023-05-24T18:26:00.714Z,100.00
2023-05-24T18:28:29.854Z,100.00
2023-05-24T18:30:56.458Z,100.00
2023-05-24T18:33:23.278Z,100.00
2023-05-24T18:35:50.013Z,100.00
2023-05-24T18:38:16.552Z,100.00
2023-05-24T18:40:43.098Z,100.00
2023-05-24T18:43:09.611Z,100.00
2023-05-24T18:45:36.144Z,100.00
2023-05-24T18:48:02.801Z,100.00
2023-05-24T18:50:29.374Z,100.00
2023-05-24T18:52:55.930Z,100.00
2023-05-24T18:55:22.456Z,100.00
2023-05-24T18:57:49.230Z,100.00
2023-05-24T19:00:19.319Z,100.00
2023-05-24T19:02:46.110Z,100.00
2023-05-24T19:05:12.985Z,100.00
2023-05-24T19:07:39.541Z,100.00
2023-05-24T19:10:07.019Z,100.00
2023-05-24T19:12:33.986Z,100.00
2023-05-24T19:15:02.757Z,100.00
2023-05-24T19:17:29.341Z,100.00
2023-05-24T19:19:55.937Z,100.00
2023-05-24T19:22:22.768Z,100.00
2023-05-24T19:24:49.375Z,100.00
2023-05-24T19:27:15.892Z,100.00
2023-05-24T19:29:42.564Z,100.00
2023-05-24T19:32:09.186Z,100.00
2023-05-24T19:34:37.206Z,100.00
2023-05-24T19:37:04.158Z,100.00
2023-05-24T19:39:30.846Z,100.00
2023-05-24T19:41:57.418Z,100.00
2023-05-24T19:44:23.953Z,100.00
2023-05-24T19:46:50.563Z,100.00
2023-05-24T19:49:20.450Z,100.00
2023-05-24T19:51:46.989Z,100.00
2023-05-24T19:54:16.763Z,100.00
2023-05-24T19:56:43.356Z,100.00
2023-05-24T19:59:19.254Z,100.00
2023-05-24T20:01:45.962Z,100.00
2023-05-24T20:04:13.064Z,100.00
2023-05-24T20:06:43.461Z,100.00
2023-05-24T20:09:10.086Z,100.00
2023-05-24T20:11:36.606Z,100.00
2023-05-24T20:14:03.151Z,100.00
2023-05-24T20:16:30.826Z,100.00
2023-05-24T20:18:59.634Z,100.00
2023-05-24T20:21:26.232Z,100.00
2023-05-24T20:23:57.763Z,100.00
2023-05-24T20:26:25.690Z,100.00
2023-05-24T20:28:52.184Z,100.00
2023-05-24T20:31:18.760Z,100.00
2023-05-24T20:33:48.984Z,100.00
2023-05-24T20:36:22.126Z,100.00
2023-05-24T20:38:51.344Z,100.00
2023-05-24T20:41:21.446Z,100.00
2023-05-24T20:43:48.565Z,100.00
2023-05-24T20:46:15.185Z,100.00
2023-05-24T20:48:48.474Z,100.00
2023-05-24T20:51:15.014Z,100.00
2023-05-24T20:53:41.659Z,100.00
2023-05-24T20:56:11.574Z,100.00
2023-05-24T20:58:41.507Z,100.00
2023-05-24T21:01:08.677Z,100.00
2023-05-24T21:03:35.735Z,100.00
2023-05-24T21:06:02.715Z,100.00
2023-05-24T21:08:29.277Z,100.00
2023-05-24T21:10:56.499Z,100.00
2023-05-24T21:13:25.432Z,100.00
2023-05-24T21:15:52.114Z,100.00
2023-05-24T21:18:20.211Z,100.00
2023-05-24T21:20:51.827Z,100.00
2023-05-24T21:23:18.352Z,100.00
2023-05-24T21:25:47.817Z,100.00
2023-05-24T21:28:14.535Z,100.00
2023-05-24T21:30:41.107Z,100.00
2023-05-24T21:33:07.769Z,100.00
2023-05-24T21:35:34.372Z,100.00
2023-05-24T21:38:03.814Z,100.00
2023-05-24T21:40:33.113Z,100.00
2023-05-24T21:42:59.629Z,100.00
2023-05-24T21:45:29.056Z,100.00
2023-05-24T21:47:55.561Z,100.00
2023-05-24T21:50:23.107Z,100.00
2023-05-24T21:52:49.608Z,100.00
2023-05-24T21:55:16.161Z,100.00
2023-05-24T21:57:42.688Z,100.00
2023-05-24T22:00:09.821Z,100.00
2023-05-24T22:02:37.425Z,100.00
2023-05-24T22:05:14.378Z,100.00
2023-05-24T22:07:48.058Z,100.00
2023-05-24T22:10:14.920Z,100.00
2023-05-24T22:12:41.430Z,100.00
2023-05-24T22:15:08.611Z,100.00
2023-05-24T22:17:36.868Z,100.00
2023-05-24T22:20:07.472Z,100.00
2023-05-24T22:22:34.697Z,100.00
2023-05-24T22:25:02.007Z,100.00
2023-05-24T22:27:29.068Z,100.00
2023-05-24T22:30:00.319Z,100.00
2023-05-24T22:32:29.863Z,100.00
2023-05-24T22:34:56.512Z,100.00
2023-05-24T22:37:22.996Z,100.00
2023-05-24T22:39:49.551Z,100.00
2023-05-24T22:42:19.264Z,100.00
2023-05-24T22:44:48.098Z,100.00
2023-05-24T22:47:16.987Z,100.00
2023-05-24T22:49:46.510Z,100.00
2023-05-24T22:52:17.239Z,100.00
2023-05-24T22:54:46.883Z,100.00
2023-05-24T22:57:13.391Z,100.00
2023-05-24T22:59:39.869Z,100.00
2023-05-24T23:02:06.402Z,100.00
2023-05-24T23:04:33.571Z,100.00
2023-05-24T23:07:03.167Z,100.00
2023-05-24T23:09:35.455Z,100.00
2023-05-24T23:12:10.059Z,100.00
2023-05-24T23:14:38.334Z,100.00
2023-05-24T23:17:17.166Z,100.00
2023-05-24T23:19:51.422Z,100.00
2023-05-24T23:22:24.453Z,100.00
2023-05-24T23:24:50.964Z,100.00
2023-05-24T23:27:17.707Z,100.00
2023-05-24T23:29:44.224Z,100.00
2023-05-24T23:32:10.850Z,100.00
2023-05-24T23:34:38.022Z,100.00
2023-05-24T23:37:09.030Z,100.00
2023-05-24T23:39:38.789Z,100.00
2023-05-24T23:42:06.700Z,100.00
2023-05-24T23:44:33.381Z,100.00
2023-05-24T23:46:59.986Z,100.00
2023-05-24T23:49:26.563Z,100.00
2023-05-24T23:51:53.187Z,100.00
2023-05-24T23:54:22.761Z,100.00
2023-05-24T23:56:52.750Z,100.00
2023-05-24T23:59:19.212Z,100.00
